Аэропорт
Ош (UCFO)

 UCFO / OSS
ЗЦ Центральная Азия
Ош (UCFO)
Ош (UCFO)
 40.60900, 72.79330  / 2927 ft

 UCFO 191130Z 31002MPS 270V360 9999 FEW050CB BKN133 29/09 Q1008 R12/0///95 NOSIG

показать схемы



2019 © VATRUS division (Privacy Policy)